Time;durP1;ratioP1;P1;durP2;ratioP2;P2;SDS_P1;SDS_P2;PMS_P1;PMS_P2;Temp;Humidity;BMP_temperature;BMP_pressure;BME280_temperature;BME280_humidity;BME280_pressure;Samples;Min_cycle;Max_cycle;Signal;HPM_P1;HPM_P2
2024/02/07 00:02:13;;;;;;;6.45;1.20;;;15.50;81.40;;;;;;4090235;28;20412;-47
2024/02/07 00:04:55;;;;;;;7.75;1.67;;;15.50;81.40;;;;;;4100040;28;20105;-43
2024/02/07 00:07:37;;;;;;;8.50;1.83;;;15.50;81.30;;;;;;4089766;28;20517;-44
2024/02/07 00:10:18;;;;;;;7.25;1.23;;;15.50;81.30;;;;;;4089415;28;20078;-43
2024/02/07 00:13:00;;;;;;;6.32;1.42;;;15.50;81.10;;;;;;4083291;28;20385;-47
2024/02/07 00:15:40;;;;;;;5.85;0.93;;;15.40;80.90;;;;;;4088504;28;20054;-48
2024/02/07 00:18:22;;;;;;;5.03;0.90;;;15.40;81.00;;;;;;4077053;28;20113;-43
2024/02/07 00:21:05;;;;;;;4.70;1.33;;;15.40;81.10;;;;;;4073297;29;20059;-46
2024/02/07 00:23:46;;;;;;;2.85;0.90;;;15.40;81.10;;;;;;4087440;28;20187;-44
2024/02/07 00:26:27;;;;;;;4.93;1.40;;;15.40;81.20;;;;;;4086688;28;20190;-44
2024/02/07 00:29:09;;;;;;;6.75;1.70;;;15.40;81.30;;;;;;4083958;28;20054;-50
2024/02/07 00:31:50;;;;;;;8.32;1.98;;;15.40;81.60;;;;;;4088733;28;20062;-47
2024/02/07 00:34:33;;;;;;;10.18;1.80;;;15.40;82.50;;;;;;4089062;28;20113;-43
2024/02/07 00:37:16;;;;;;;5.88;1.10;;;15.40;81.80;;;;;;4076906;28;20082;-45
2024/02/07 00:39:57;;;;;;;4.97;1.20;;;15.30;81.80;;;;;;4089030;28;20054;-45
2024/02/07 00:42:38;;;;;;;5.35;1.27;;;15.30;82.00;;;;;;4089179;28;20097;-44
2024/02/07 00:45:19;;;;;;;5.40;1.15;;;15.40;81.90;;;;;;4088568;28;20877;-45
2024/02/07 00:48:00;;;;;;;5.75;1.63;;;15.30;82.00;;;;;;4089414;28;20057;-43
2024/02/07 00:50:41;;;;;;;8.95;1.40;;;15.30;81.90;;;;;;4089290;28;20081;-43
2024/02/07 00:53:24;;;;;;;5.70;1.25;;;15.30;82.10;;;;;;4089291;28;20090;-43
2024/02/07 00:56:05;;;;;;;6.45;1.75;;;15.30;82.30;;;;;;4089452;28;20186;-43
2024/02/07 00:58:46;;;;;;;9.25;2.53;;;15.30;82.00;;;;;;4089408;28;20428;-45
2024/02/07 01:01:27;;;;;;;5.10;1.75;;;15.30;81.80;;;;;;4089258;28;20062;-43
2024/02/07 01:04:08;;;;;;;7.18;1.80;;;15.30;82.10;;;;;;4068580;29;20059;-43
2024/02/07 01:06:49;;;;;;;7.03;1.40;;;15.30;82.30;;;;;;4088741;28;20058;-45
2024/02/07 01:09:32;;;;;;;12.68;2.20;;;15.30;82.20;;;;;;4088779;28;20058;-43
2024/02/07 01:12:12;;;;;;;10.38;2.60;;;15.20;82.10;;;;;;4088411;28;20198;-43
2024/02/07 01:14:53;;;;;;;10.10;1.40;;;15.20;82.10;;;;;;4099091;28;20511;-51
2024/02/07 01:17:34;;;;;;;6.53;1.30;;;15.20;82.00;;;;;;4089540;28;20066;-50
2024/02/07 01:20:16;;;;;;;10.15;1.65;;;15.20;82.10;;;;;;4089498;28;20507;-49
2024/02/07 01:22:57;;;;;;;10.82;1.70;;;15.30;82.90;;;;;;4089115;28;20058;-52
2024/02/07 01:25:39;;;;;;;11.82;2.10;;;15.30;82.80;;;;;;4089466;28;20133;-47
2024/02/07 01:28:20;;;;;;;10.50;1.95;;;15.40;82.80;;;;;;4089631;28;20055;-44
2024/02/07 01:31:01;;;;;;;16.48;2.92;;;15.40;82.60;;;;;;4077144;28;20054;-48
2024/02/07 01:33:42;;;;;;;11.82;2.28;;;15.50;82.40;;;;;;4089270;28;20614;-46
2024/02/07 01:36:24;;;;;;;11.60;3.00;;;15.50;82.10;;;;;;4089185;28;20054;-48
2024/02/07 01:39:05;;;;;;;13.70;2.17;;;15.50;81.90;;;;;;4088464;28;20134;-44
2024/02/07 01:42:00;;;;;;;14.25;2.55;;;15.50;81.50;;;;;;4088490;28;20551;-46
2024/02/07 01:44:42;;;;;;;11.27;2.13;;;15.50;81.40;;;;;;4087494;28;20054;-48
2024/02/07 01:47:22;;;;;;;11.30;2.13;;;15.50;81.50;;;;;;4088641;28;20416;-52
2024/02/07 01:50:06;;;;;;;11.40;1.90;;;15.50;81.50;;;;;;4089384;28;20066;-47
2024/02/07 01:52:47;;;;;;;11.52;1.85;;;15.50;81.80;;;;;;4091639;28;20146;-50
2024/02/07 01:55:29;;;;;;;14.52;2.75;;;15.50;81.80;;;;;;4076417;29;20051;-48
2024/02/07 01:58:13;;;;;;;9.70;2.42;;;15.50;81.80;;;;;;4064461;29;20543;-49
2024/02/07 02:00:55;;;;;;;13.32;2.13;;;15.50;81.80;;;;;;4075753;29;20195;-49
2024/02/07 02:03:36;;;;;;;11.45;2.25;;;15.50;82.00;;;;;;4101606;28;20110;-51
2024/02/07 02:06:17;;;;;;;;;;;15.50;82.00;;;;;;4080484;28;20058;-52
2024/02/07 02:08:58;;;;;;;14.00;3.10;;;15.50;81.60;;;;;;4091417;28;19929;-49
2024/02/07 02:11:41;;;;;;;16.17;3.22;;;15.50;81.90;;;;;;4090811;28;20098;-52
2024/02/07 02:14:24;;;;;;;8.60;1.60;;;15.60;81.90;;;;;;4091751;28;20514;-50
2024/02/07 02:17:05;;;;;;;7.70;2.33;;;15.60;81.90;;;;;;4091417;28;20054;-51
2024/02/07 02:19:48;;;;;;;9.98;2.25;;;15.60;81.70;;;;;;4064449;29;20429;-49
2024/02/07 02:22:52;;;;;;;15.27;2.42;;;15.60;81.60;;;;;;4085548;28;20110;-53
2024/02/07 02:25:58;;;;;;;13.93;2.65;;;15.70;81.10;;;;;;4078189;28;20082;-52
2024/02/07 02:28:54;;;;;;;19.23;3.67;;;15.70;80.80;;;;;;4089743;28;20062;-47
2024/02/07 02:31:38;;;;;;;13.15;2.80;;;15.80;80.70;;;;;;4089481;28;20491;-50
2024/02/07 02:34:20;;;;;;;17.27;2.40;;;15.80;80.70;;;;;;4083988;28;20058;-48
2024/02/07 02:37:02;;;;;;;12.93;2.80;;;15.80;80.70;;;;;;4091066;28;20110;-50
2024/02/07 02:39:43;;;;;;;14.07;3.13;;;15.80;80.40;;;;;;4091507;28;20600;-47
2024/02/07 02:42:24;;;;;;;12.38;1.88;;;15.80;80.20;;;;;;4087943;28;20120;-50
2024/02/07 02:45:06;;;;;;;11.57;2.38;;;15.90;80.00;;;;;;4078029;28;20050;-52
2024/02/07 02:47:49;;;;;;;16.60;2.38;;;15.80;79.80;;;;;;4090970;28;20058;-45
2024/02/07 02:50:31;;;;;;;12.23;2.85;;;15.90;80.10;;;;;;4090763;28;20097;-45
2024/02/07 02:53:13;;;;;;;11.63;1.90;;;15.80;80.00;;;;;;4089503;28;20109;-48
2024/02/07 02:55:54;;;;;;;13.20;2.08;;;15.90;79.80;;;;;;4078886;28;20113;-47
2024/02/07 02:58:35;;;;;;;12.20;2.35;;;15.90;79.70;;;;;;4090229;28;20538;-46
2024/02/07 03:01:19;;;;;;;12.77;2.50;;;15.90;79.60;;;;;;4083907;28;20110;-44
2024/02/07 03:04:03;;;;;;;14.77;2.50;;;15.90;79.50;;;;;;4079634;28;20054;-49
2024/02/07 03:06:58;;;;;;;14.65;2.42;;;15.90;80.50;;;;;;4090551;28;20511;-47
2024/02/07 03:09:48;;;;;;;13.68;2.33;;;15.90;79.50;;;;;;4089029;28;20058;-47
2024/02/07 03:12:29;;;;;;;13.02;2.65;;;16.00;79.30;;;;;;4089878;28;20146;-43
2024/02/07 03:15:11;;;;;;;10.07;1.98;;;16.00;79.00;;;;;;4089984;28;20554;-47
2024/02/07 03:17:52;;;;;;;9.65;1.73;;;16.00;79.00;;;;;;4090549;28;20109;-43
2024/02/07 03:20:35;;;;;;;10.10;2.20;;;16.00;78.70;;;;;;4090172;28;20848;-46
2024/02/07 03:23:15;;;;;;;9.95;2.15;;;16.00;78.20;;;;;;4077860;28;20078;-47
2024/02/07 03:25:57;;;;;;;6.80;1.38;;;15.90;78.40;;;;;;4089582;28;20086;-44
2024/02/07 03:28:38;;;;;;;11.80;2.40;;;15.90;78.70;;;;;;4089865;28;20527;-44
2024/02/07 03:31:19;;;;;;;11.30;2.15;;;15.90;79.00;;;;;;4088968;28;20073;-47
2024/02/07 03:34:00;;;;;;;7.78;1.83;;;15.90;78.80;;;;;;4078079;28;20190;-48
2024/02/07 03:36:42;;;;;;;11.07;1.90;;;15.90;79.00;;;;;;4074399;29;20055;-48
2024/02/07 03:39:23;;;;;;;12.20;2.28;;;15.90;77.60;;;;;;4074222;29;20405;-42
2024/02/07 03:42:06;;;;;;;6.00;2.22;;;15.90;77.70;;;;;;4081373;29;20090;-44
2024/02/07 03:44:56;;;;;;;8.18;2.60;;;15.90;76.70;;;;;;4089878;28;20412;-45
2024/02/07 03:47:39;;;;;;;12.10;2.65;;;16.00;77.40;;;;;;4078114;28;20062;-45
2024/02/07 03:50:25;;;;;;;14.23;3.15;;;16.00;77.70;;;;;;4090052;28;20074;-48
2024/02/07 03:53:08;;;;;;;13.30;3.10;;;16.00;77.00;;;;;;4089153;28;20058;-43
2024/02/07 03:55:49;;;;;;;13.30;2.60;;;16.00;76.40;;;;;;4089097;28;20054;-42
2024/02/07 03:58:30;;;;;;;12.07;2.45;;;16.00;76.20;;;;;;4089654;28;20054;-44
2024/02/07 04:01:15;;;;;;;10.80;2.38;;;16.00;76.10;;;;;;4089181;28;20202;-46
2024/02/07 04:03:57;;;;;;;9.70;2.08;;;16.00;75.50;;;;;;4077243;28;20198;-43
2024/02/07 04:06:39;;;;;;;8.55;1.95;;;16.00;75.50;;;;;;4089439;28;20523;-43
2024/02/07 04:09:21;;;;;;;7.55;1.98;;;16.00;75.90;;;;;;4089460;28;20077;-43
2024/02/07 05:16:59;;;;;;;10.88;2.75;;;16.00;77.00;;;;;;4060603;29;20545;-52
2024/02/07 05:19:42;;;;;;;11.25;2.10;;;16.00;77.30;;;;;;4073084;29;20063;-47
2024/02/07 05:22:23;;;;;;;9.98;2.03;;;16.00;77.10;;;;;;4080193;28;20058;-50
2024/02/07 05:25:05;;;;;;;7.53;1.92;;;16.00;77.10;;;;;;4088658;28;20107;-51
2024/02/07 05:27:47;;;;;;;12.32;2.63;;;16.00;77.00;;;;;;4092335;28;20050;-50
2024/02/07 05:30:28;;;;;;;9.40;2.53;;;16.10;77.10;;;;;;4092365;28;20049;-50
2024/02/07 05:33:09;;;;;;;12.75;2.30;;;16.10;77.00;;;;;;4091544;28;20492;-50
2024/02/07 05:35:52;;;;;;;10.75;2.05;;;16.10;76.80;;;;;;4091731;28;20062;-52
2024/02/07 05:38:33;;;;;;;10.80;2.58;;;16.20;76.70;;;;;;4091731;28;20093;-48
2024/02/07 05:41:14;;;;;;;9.35;1.90;;;16.20;76.50;;;;;;4087004;29;20054;-51
2024/02/07 05:43:55;;;;;;;10.32;2.20;;;16.20;76.50;;;;;;4068312;29;20086;-51
2024/02/07 05:46:36;;;;;;;11.02;2.22;;;16.20;76.50;;;;;;4075423;29;20646;-53
2024/02/07 05:49:17;;;;;;;9.75;2.58;;;16.20;77.30;;;;;;4089551;28;20065;-51
2024/02/07 05:52:00;;;;;;;8.63;1.92;;;16.20;76.40;;;;;;4084589;28;20440;-50
2024/02/07 05:54:43;;;;;;;12.82;2.03;;;16.20;76.10;;;;;;4091536;28;20054;-49
2024/02/07 05:57:24;;;;;;;11.73;1.92;;;16.20;76.10;;;;;;4091272;28;20409;-51
2024/02/07 06:00:08;;;;;;;7.38;2.05;;;16.20;76.00;;;;;;4095273;28;20050;-54
2024/02/07 06:02:54;;;;;;;12.45;2.70;;;16.10;75.90;;;;;;4083022;28;20062;-49
2024/02/07 06:05:35;;;;;;;10.32;2.00;;;16.20;76.20;;;;;;4091753;29;20062;-50
2024/02/07 06:08:18;;;;;;;7.53;1.75;;;16.10;76.00;;;;;;4091150;28;20133;-52
2024/02/07 06:10:59;;;;;;;12.68;2.63;;;16.10;75.90;;;;;;4091301;28;20062;-51
2024/02/07 06:13:41;;;;;;;16.35;2.63;;;16.10;75.90;;;;;;4075361;29;20078;-51
2024/02/07 06:16:22;;;;;;;8.38;1.90;;;16.10;75.80;;;;;;4081862;28;20059;-51
2024/02/07 06:19:03;;;;;;;9.00;1.65;;;16.00;76.00;;;;;;4091137;28;20066;-50
2024/02/07 06:21:44;;;;;;;6.88;2.08;;;16.00;76.10;;;;;;4090824;28;20133;-49
2024/02/07 06:24:27;;;;;;;7.60;1.95;;;16.00;76.20;;;;;;4090837;28;20102;-49
2024/02/07 06:27:07;;;;;;;7.40;2.30;;;15.90;76.50;;;;;;4091223;28;20466;-53
2024/02/07 06:29:49;;;;;;;11.23;2.58;;;15.90;76.70;;;;;;4101033;28;20230;-50
2024/02/07 06:32:29;;;;;;;9.33;1.60;;;15.90;76.80;;;;;;4090857;28;20058;-49
2024/02/07 06:35:10;;;;;;;9.75;1.67;;;15.90;77.10;;;;;;4090924;28;20378;-51
2024/02/07 06:37:52;;;;;;;8.43;1.92;;;15.90;76.90;;;;;;4090636;28;20171;-50
2024/02/07 06:40:34;;;;;;;10.85;2.38;;;16.00;76.50;;;;;;4079397;29;20058;-49
2024/02/07 06:43:15;;;;;;;10.75;2.20;;;16.00;76.30;;;;;;4076094;29;20055;-50
2024/02/07 06:45:57;;;;;;;10.38;1.63;;;16.00;76.40;;;;;;4090775;28;20058;-52
2024/02/07 06:48:38;;;;;;;13.25;2.42;;;16.00;76.60;;;;;;4090114;28;20105;-52
2024/02/07 06:51:18;;;;;;;6.37;1.83;;;16.10;76.50;;;;;;4077497;28;20058;-53
2024/02/07 06:54:00;;;;;;;7.43;1.58;;;16.10;76.40;;;;;;4086611;28;20307;-50
2024/02/07 06:56:42;;;;;;;9.90;1.80;;;16.20;76.00;;;;;;4090259;28;20058;-46
2024/02/07 06:59:23;;;;;;;7.13;2.40;;;16.20;75.60;;;;;;4090057;28;20057;-46
2024/02/07 07:02:04;;;;;;;7.95;2.25;;;16.10;75.30;;;;;;4090281;28;20520;-48
2024/02/07 07:04:45;;;;;;;7.97;1.40;;;16.10;75.50;;;;;;4095250;28;20057;-45
2024/02/07 07:07:26;;;;;;;12.02;1.60;;;16.10;75.90;;;;;;4091330;28;20061;-44
2024/02/07 07:10:08;;;;;;;7.60;2.80;;;16.10;76.00;;;;;;4089807;28;20047;-50
2024/02/07 07:12:50;;;;;;;16.27;6.50;;;16.20;75.90;;;;;;4085086;28;20054;-50
2024/02/07 07:15:31;;;;;;;14.55;4.28;;;16.20;75.50;;;;;;4087977;28;20062;-53
2024/02/07 07:18:13;;;;;;;7.00;1.70;;;16.30;75.30;;;;;;4063116;29;20066;-53
2024/02/07 07:20:54;;;;;;;5.90;1.70;;;16.30;75.10;;;;;;4076428;29;20408;-45
2024/02/07 07:23:35;;;;;;;6.60;1.27;;;16.40;74.90;;;;;;4090009;28;20047;-49
2024/02/07 07:26:16;;;;;;;3.58;1.17;;;16.40;74.80;;;;;;4089243;28;20078;-49
2024/02/07 07:28:59;;;;;;;7.85;2.03;;;16.40;74.60;;;;;;4074660;28;20078;-49
2024/02/07 07:31:40;;;;;;;6.35;1.40;;;16.40;74.60;;;;;;4081910;28;20071;-46
2024/02/07 07:34:21;;;;;;;11.27;2.55;;;16.40;74.80;;;;;;4089971;28;20066;-47
2024/02/07 07:37:02;;;;;;;6.85;2.58;;;16.40;75.00;;;;;;4089408;28;20054;-48
2024/02/07 07:39:43;;;;;;;9.60;1.75;;;16.40;75.00;;;;;;4089778;28;20058;-49
2024/02/07 07:42:24;;;;;;;9.50;1.95;;;16.40;75.00;;;;;;4089376;28;20199;-47
2024/02/07 07:45:07;;;;;;;8.00;1.83;;;16.40;75.40;;;;;;4089148;28;20425;-48
2024/02/07 07:47:48;;;;;;;7.47;1.58;;;16.40;75.00;;;;;;4088897;28;20417;-48
2024/02/07 07:50:29;;;;;;;8.20;1.70;;;16.40;74.60;;;;;;4088275;28;20132;-48
2024/02/07 07:53:11;;;;;;;8.73;2.45;;;16.50;74.50;;;;;;4074142;29;20105;-48
2024/02/07 07:55:52;;;;;;;13.75;2.22;;;16.50;74.40;;;;;;4082141;28;20104;-48
2024/02/07 07:58:37;;;;;;;12.10;1.92;;;16.50;74.40;;;;;;4088346;28;20413;-48
2024/02/07 08:01:27;;;;;;;5.77;1.50;;;16.60;74.30;;;;;;4089715;28;20055;-48
2024/02/07 08:04:07;;;;;;;7.95;1.73;;;16.60;74.00;;;;;;4083960;28;20058;-48
2024/02/07 08:06:48;;;;;;;10.30;1.92;;;16.60;73.90;;;;;;4089588;28;20404;-52
2024/02/07 08:09:30;;;;;;;8.93;2.28;;;16.50;74.50;;;;;;4089312;28;20058;-49
2024/02/07 08:12:11;;;;;;;11.73;2.13;;;16.50;73.80;;;;;;4088743;28;20404;-48
2024/02/07 08:14:52;;;;;;;13.18;2.20;;;16.40;73.90;;;;;;4086351;28;20440;-50
2024/02/07 08:17:34;;;;;;;10.55;2.10;;;16.40;74.00;;;;;;4088972;28;20054;-47
2024/02/07 08:20:15;;;;;;;6.57;1.75;;;16.40;74.30;;;;;;4088713;28;20053;-51
2024/02/07 08:22:56;;;;;;;13.15;3.40;;;16.30;74.40;;;;;;4088627;28;20050;-53
2024/02/07 08:25:37;;;;;;;11.02;2.05;;;16.40;74.50;;;;;;4088962;28;20061;-50
2024/02/07 08:28:18;;;;;;;7.05;1.77;;;16.40;74.40;;;;;;4088598;28;20070;-50
2024/02/07 08:30:59;;;;;;;10.60;2.17;;;16.50;74.30;;;;;;4087766;28;20058;-45
2024/02/07 08:33:42;;;;;;;6.18;1.90;;;16.50;74.00;;;;;;4088640;28;20589;-44
2024/02/07 08:36:23;;;;;;;10.90;2.08;;;16.50;73.70;;;;;;4089345;28;20396;-45
2024/02/07 08:39:04;;;;;;;7.63;1.80;;;16.50;73.60;;;;;;4073163;29;20194;-44
2024/02/07 08:41:45;;;;;;;6.47;1.48;;;16.40;73.40;;;;;;4081237;28;20066;-50
2024/02/07 08:44:27;;;;;;;6.32;1.25;;;16.40;74.40;;;;;;4089133;28;20051;-48
2024/02/07 08:47:07;;;;;;;7.63;1.60;;;16.50;73.50;;;;;;4080887;28;20058;-43
2024/02/07 08:49:50;;;;;;;5.72;2.00;;;16.50;73.00;;;;;;4089118;28;20053;-48
2024/02/07 08:52:31;;;;;;;8.73;2.28;;;16.60;72.70;;;;;;4089108;28;20105;-44
2024/02/07 08:55:12;;;;;;;7.47;2.30;;;16.60;72.40;;;;;;4088554;28;20066;-48
2024/02/07 08:57:53;;;;;;;7.20;1.60;;;16.60;73.30;;;;;;4089044;28;20085;-45
2024/02/07 09:00:36;;;;;;;8.32;1.67;;;16.60;72.60;;;;;;4088720;28;20050;-46
2024/02/07 09:03:17;;;;;;;8.82;1.90;;;16.50;72.70;;;;;;4084710;28;20396;-50
2024/02/07 09:06:00;;;;;;;6.30;1.52;;;16.50;72.80;;;;;;4082440;28;20061;-48
2024/02/07 09:08:41;;;;;;;7.15;1.50;;;16.50;72.40;;;;;;4073663;29;20058;-48
2024/02/07 09:11:22;;;;;;;8.18;2.30;;;16.50;72.20;;;;;;4072890;29;20055;-49
2024/02/07 09:14:03;;;;;;;6.78;1.45;;;16.50;72.00;;;;;;4073449;29;20203;-51
2024/02/07 09:16:44;;;;;;;4.47;1.35;;;16.50;72.30;;;;;;4079103;28;20515;-48
2024/02/07 09:19:25;;;;;;;7.63;2.05;;;16.50;72.60;;;;;;4088656;28;20055;-49
2024/02/07 09:22:07;;;;;;;4.50;1.25;;;16.50;72.60;;;;;;4088311;28;20082;-43
2024/02/07 09:24:49;;;;;;;6.65;1.70;;;16.50;72.60;;;;;;4089177;28;20412;-48
2024/02/07 09:27:30;;;;;;;5.88;1.40;;;16.50;72.70;;;;;;4089103;28;20050;-45
2024/02/07 09:30:14;;;;;;;8.52;1.77;;;16.50;72.50;;;;;;4089001;28;20066;-45
2024/02/07 09:32:55;;;;;;;6.30;1.50;;;16.60;72.40;;;;;;4089320;28;20129;-46
2024/02/07 09:35:36;;;;;;;13.25;6.20;;;16.60;72.10;;;;;;4088856;28;20381;-48
2024/02/07 09:38:21;;;;;;;11.07;6.10;;;16.70;72.00;;;;;;4072868;29;20049;-45
2024/02/07 09:41:05;;;;;;;7.13;3.00;;;16.70;71.80;;;;;;4073340;29;20062;-45
2024/02/07 09:43:48;;;;;;;8.95;2.38;;;16.60;71.50;;;;;;4072595;29;20059;-43
2024/02/07 09:46:34;;;;;;;5.57;1.92;;;16.60;71.60;;;;;;4079048;28;20062;-44
2024/02/07 09:49:18;;;;;;;8.88;2.10;;;16.50;71.40;;;;;;4088127;28;20460;-46
2024/02/07 09:52:01;;;;;;;10.30;1.85;;;16.50;71.60;;;;;;4087687;28;20558;-45
2024/02/07 09:54:46;;;;;;;4.45;1.25;;;16.60;71.70;;;;;;4088057;28;20057;-50
2024/02/07 09:57:27;;;;;;;4.85;1.48;;;16.60;71.50;;;;;;4077165;28;20054;-44
2024/02/07 10:00:08;;;;;;;;;;;16.60;70.80;;;;;;4088809;28;20059;-48
2024/02/07 10:02:50;;;;;;;8.52;2.35;;;16.60;70.50;;;;;;4088495;28;19965;-43
2024/02/07 10:05:32;;;;;;;10.32;2.08;;;16.60;71.90;;;;;;4085673;28;20058;-45
2024/02/07 10:08:13;;;;;;;11.30;3.03;;;16.50;71.20;;;;;;4083059;28;20062;-48
2024/02/07 10:10:55;;;;;;;;;;;16.50;71.30;;;;;;4080997;28;20105;-45
2024/02/07 10:13:38;;;;;;;9.30;1.73;;;16.50;71.70;;;;;;4091296;28;20131;-46
2024/02/07 10:16:19;;;;;;;6.30;2.13;;;16.50;71.70;;;;;;4091239;28;20515;-47
2024/02/07 10:19:00;;;;;;;9.02;2.10;;;16.50;71.70;;;;;;4080032;28;20693;-48
2024/02/07 10:21:41;;;;;;;6.17;1.70;;;16.50;71.00;;;;;;4091066;28;20062;-43
2024/02/07 10:24:22;;;;;;;6.10;1.67;;;16.50;68.20;;;;;;4090785;28;20581;-46
2024/02/07 10:27:04;;;;;;;6.15;1.70;;;16.40;67.70;;;;;;4084897;28;20046;-45
2024/02/07 10:29:45;;;;;;;5.43;1.48;;;16.40;69.70;;;;;;4090864;28;20057;-44
2024/02/07 10:32:27;;;;;;;7.93;1.75;;;16.40;68.00;;;;;;4075558;29;20086;-45
2024/02/07 10:35:10;;;;;;;;;;;16.40;65.40;;;;;;4075921;29;20086;-45
2024/02/07 10:37:53;;;;;;;8.60;2.03;;;16.50;68.10;;;;;;4067409;29;20678;-45
2024/02/07 10:40:36;;;;;;;5.53;1.50;;;16.40;66.20;;;;;;4076708;28;20516;-44
2024/02/07 10:43:24;;;;;;;6.78;2.55;;;16.40;67.80;;;;;;4086272;28;20448;-46
2024/02/07 10:46:08;;;;;;;5.07;1.80;;;16.40;68.70;;;;;;4083355;28;20054;-43
2024/02/07 10:48:51;;;;;;;6.85;1.30;;;16.40;70.30;;;;;;4074480;29;20054;-43
2024/02/07 10:51:32;;;;;;;5.13;1.35;;;16.30;65.70;;;;;;4086064;29;20420;-45
2024/02/07 10:54:13;;;;;;;4.57;1.30;;;16.30;68.50;;;;;;4089864;28;20054;-48
2024/02/07 10:56:57;;;;;;;5.03;1.88;;;16.30;68.80;;;;;;4090800;28;20182;-47
2024/02/07 10:59:41;;;;;;;8.23;1.60;;;16.40;68.00;;;;;;4091194;28;20468;-43
2024/02/07 11:02:24;;;;;;;6.07;1.23;;;16.50;66.00;;;;;;4074957;29;20109;-43
2024/02/07 11:05:06;;;;;;;6.63;1.13;;;16.50;67.40;;;;;;4088036;28;20058;-44
2024/02/07 11:07:48;;;;;;;3.90;1.25;;;16.50;68.70;;;;;;4086941;28;20058;-44
2024/02/07 11:10:30;;;;;;;7.50;1.80;;;16.50;68.80;;;;;;4089961;28;20078;-44
2024/02/07 11:13:12;;;;;;;5.80;1.55;;;16.50;63.70;;;;;;4090642;28;20408;-46
2024/02/07 11:15:55;;;;;;;6.63;1.73;;;16.50;66.10;;;;;;4074554;29;20062;-45
2024/02/07 11:18:35;;;;;;;5.55;1.17;;;16.40;66.20;;;;;;4085878;28;20187;-45
2024/02/07 11:21:20;;;;;;;7.82;1.70;;;16.40;67.70;;;;;;4090694;28;20747;-43
2024/02/07 11:24:02;;;;;;;5.82;1.50;;;16.40;69.00;;;;;;4089966;28;20428;-44
2024/02/07 11:26:44;;;;;;;;;;;16.40;66.20;;;;;;4090553;28;20093;-48
2024/02/07 11:29:25;;;;;;;;;;;16.40;65.60;;;;;;4089921;28;19933;-48
2024/02/07 11:32:10;;;;;;;4.55;1.35;;;16.50;68.90;;;;;;4084226;28;20425;-48
2024/02/07 11:34:53;;;;;;;12.50;1.70;;;16.40;67.40;;;;;;4089592;28;20054;-49
2024/02/07 11:37:36;;;;;;;6.60;1.98;;;16.40;65.60;;;;;;4089550;28;20061;-49
2024/02/07 11:40:19;;;;;;;5.50;1.45;;;16.40;67.60;;;;;;4082132;28;20066;-49
2024/02/07 11:43:02;;;;;;;5.97;1.27;;;16.30;67.30;;;;;;4090007;28;20062;-48
2024/02/07 11:45:43;;;;;;;6.65;1.55;;;16.30;68.30;;;;;;4065322;28;20070;-51
2024/02/07 11:48:26;;;;;;;5.90;1.38;;;16.30;68.90;;;;;;4067707;29;20063;-50
2024/02/07 11:51:08;;;;;;;6.65;1.20;;;16.20;68.80;;;;;;4077673;29;20054;-49
2024/02/07 11:53:50;;;;;;;6.55;1.50;;;16.20;69.70;;;;;;4096233;28;20077;-52
2024/02/07 11:56:31;;;;;;;7.95;1.60;;;16.20;67.90;;;;;;4083565;28;20058;-47
2024/02/07 11:59:12;;;;;;;;;;;16.20;69.30;;;;;;4089981;28;20515;-48
2024/02/07 12:01:53;;;;;;;4.72;1.60;;;16.20;70.90;;;;;;4081133;28;19996;-46
2024/02/07 12:04:40;;;;;;;8.98;1.73;;;16.20;73.00;;;;;;4088245;28;20147;-46
2024/02/07 12:07:21;;;;;;;7.13;1.58;;;16.10;72.80;;;;;;4070677;28;20062;-47
2024/02/07 12:10:02;;;;;;;8.45;1.95;;;16.10;72.80;;;;;;4075042;28;20106;-47
2024/02/07 12:12:43;;;;;;;6.30;1.20;;;16.10;71.90;;;;;;4086154;28;20070;-42
2024/02/07 12:15:26;;;;;;;3.22;1.73;;;16.00;71.40;;;;;;4089394;28;20114;-43
2024/02/07 12:18:07;;;;;;;7.53;1.60;;;16.00;71.60;;;;;;4073657;29;20519;-47
2024/02/07 12:20:51;;;;;;;4.88;1.60;;;16.00;72.20;;;;;;4086615;28;20198;-45
2024/02/07 12:23:33;;;;;;;6.03;1.40;;;16.10;72.40;;;;;;4089770;28;20058;-48
2024/02/07 12:26:14;;;;;;;5.30;1.40;;;16.10;72.40;;;;;;4089083;28;20058;-47
2024/02/07 12:28:56;;;;;;;7.43;1.77;;;16.10;71.50;;;;;;4088917;28;20062;-46
2024/02/07 12:31:38;;;;;;;12.00;1.42;;;16.20;69.90;;;;;;4088406;28;20086;-45
2024/02/07 12:34:25;;;;;;;7.78;2.22;;;16.20;70.50;;;;;;4087456;28;20182;-46
2024/02/07 12:37:08;;;;;;;7.38;1.65;;;16.20;70.00;;;;;;4072689;29;20051;-46
2024/02/07 12:39:51;;;;;;;5.10;1.45;;;16.30;71.60;;;;;;4081345;28;20054;-46
2024/02/07 12:42:32;;;;;;;7.82;1.38;;;16.30;69.50;;;;;;4088832;28;20077;-47
2024/02/07 12:45:13;;;;;;;3.55;1.25;;;16.30;68.80;;;;;;4084122;28;20054;-46
2024/02/07 12:47:55;;;;;;;8.50;1.40;;;16.40;70.70;;;;;;4088464;28;20092;-45
2024/02/07 12:50:37;;;;;;;;;;;16.40;70.20;;;;;;4077576;28;20073;-49
2024/02/07 12:53:20;;;;;;;8.90;2.03;;;16.40;69.70;;;;;;4089483;28;19930;-47
2024/02/07 12:56:01;;;;;;;6.75;1.65;;;16.30;72.80;;;;;;4089122;28;20047;-47
2024/02/07 12:58:42;;;;;;;9.38;2.25;;;16.30;72.70;;;;;;4088200;28;20054;-46
2024/02/07 13:01:24;;;;;;;9.00;1.67;;;16.30;72.80;;;;;;4085331;28;20090;-47
2024/02/07 13:04:07;;;;;;;5.82;1.10;;;16.20;72.00;;;;;;4089177;28;20062;-45
2024/02/07 13:06:48;;;;;;;5.80;1.35;;;16.30;71.20;;;;;;4088980;28;20055;-48
2024/02/07 13:09:30;;;;;;;5.18;1.50;;;16.20;70.00;;;;;;4088662;28;20066;-45
2024/02/07 13:12:11;;;;;;;4.82;1.55;;;16.20;68.80;;;;;;4089458;28;20186;-45
2024/02/07 13:14:58;;;;;;;5.05;1.27;;;16.20;69.80;;;;;;4078993;29;20070;-47
2024/02/07 13:17:39;;;;;;;;;;;16.10;68.70;;;;;;4072520;29;20063;-46
2024/02/07 13:20:21;;;;;;;7.28;1.73;;;16.10;68.40;;;;;;4060031;29;19929;-49
2024/02/07 13:23:04;;;;;;;5.70;1.33;;;16.10;71.60;;;;;;4072871;29;20146;-47
2024/02/07 13:25:47;;;;;;;8.48;1.67;;;16.10;72.10;;;;;;4073066;29;20064;-46
2024/02/07 13:28:28;;;;;;;8.18;1.45;;;16.10;72.10;;;;;;4060493;29;20059;-45
2024/02/07 13:31:09;;;;;;;5.15;1.45;;;16.10;73.00;;;;;;4060908;29;20067;-46
2024/02/07 13:33:50;;;;;;;5.97;1.50;;;16.20;73.30;;;;;;4060660;29;20408;-46
2024/02/07 13:36:31;;;;;;;6.05;1.42;;;16.10;70.80;;;;;;4085130;29;20094;-47
2024/02/07 13:39:12;;;;;;;4.25;1.17;;;16.10;69.70;;;;;;4088320;28;20058;-42
2024/02/07 13:41:54;;;;;;;6.22;1.30;;;16.10;68.90;;;;;;4068636;29;20058;-42
2024/02/07 13:44:36;;;;;;;6.72;1.30;;;16.10;68.30;;;;;;4080742;29;20054;-42
2024/02/07 13:47:17;;;;;;;4.75;1.30;;;16.10;70.00;;;;;;4074149;29;20055;-44
2024/02/07 13:49:58;;;;;;;6.82;1.40;;;16.10;71.80;;;;;;4076758;29;20466;-43
2024/02/07 13:52:39;;;;;;;3.75;1.00;;;16.00;71.10;;;;;;4075606;29;20126;-45
2024/02/07 13:55:20;;;;;;;7.88;1.40;;;16.00;70.60;;;;;;4063947;29;20061;-44
2024/02/07 13:58:03;;;;;;;9.10;1.58;;;16.00;71.30;;;;;;4060263;29;20054;-42
2024/02/07 14:00:44;;;;;;;5.80;1.38;;;16.00;71.70;;;;;;4060741;29;20512;-42
2024/02/07 14:03:26;;;;;;;7.57;2.03;;;15.90;71.90;;;;;;4060590;29;20055;-41
2024/02/07 14:06:07;;;;;;;;;;;15.90;71.90;;;;;;4060911;29;20183;-42
2024/02/07 14:08:48;;;;;;;8.00;1.58;;;15.90;72.10;;;;;;4067804;29;20378;-46
2024/02/07 14:11:29;;;;;;;6.75;1.20;;;15.90;74.90;;;;;;4075399;28;20473;-46
2024/02/07 14:14:12;;;;;;;7.28;2.00;;;15.80;73.40;;;;;;4076100;29;20574;-46
2024/02/07 14:16:53;;;;;;;4.40;1.38;;;15.90;72.90;;;;;;4085239;28;20400;-48
2024/02/07 14:19:34;;;;;;;10.45;1.80;;;15.80;72.00;;;;;;4091012;28;20106;-49
2024/02/07 14:22:15;;;;;;;6.63;1.30;;;15.80;72.10;;;;;;4086870;28;20058;-46
2024/02/07 14:24:56;;;;;;;4.43;1.20;;;15.80;72.10;;;;;;4090296;28;20054;-45
2024/02/07 14:27:37;;;;;;;7.38;1.50;;;15.80;71.80;;;;;;4091390;28;20050;-45
2024/02/07 14:30:23;;;;;;;7.35;1.48;;;15.80;72.10;;;;;;4087538;28;20062;-45
2024/02/07 14:33:04;;;;;;;3.40;1.00;;;15.80;72.30;;;;;;4090494;28;20098;-48
2024/02/07 14:35:46;;;;;;;7.30;1.80;;;15.70;72.40;;;;;;4079074;28;20054;-49
2024/02/07 14:38:28;;;;;;;7.07;1.27;;;15.70;72.10;;;;;;4091133;28;20065;-46
2024/02/07 14:41:09;;;;;;;4.10;1.27;;;15.70;72.10;;;;;;4090695;28;20128;-45
2024/02/07 14:43:50;;;;;;;8.82;2.17;;;15.70;72.00;;;;;;4082849;28;20061;-45
2024/02/07 14:46:32;;;;;;;7.22;1.42;;;15.70;72.10;;;;;;4090270;28;20082;-45
2024/02/07 14:49:14;;;;;;;3.67;1.27;;;15.70;72.40;;;;;;4094014;28;20404;-45
2024/02/07 14:51:55;;;;;;;5.65;1.58;;;15.60;72.40;;;;;;4090043;28;20050;-45
2024/02/07 14:54:36;;;;;;;4.13;1.50;;;15.60;71.80;;;;;;4089870;28;20054;-45
2024/02/07 14:57:20;;;;;;;;;;;15.60;71.70;;;;;;4090256;28;20145;-45
2024/02/07 15:00:02;;;;;;;6.85;1.80;;;15.60;72.50;;;;;;4089266;28;19929;-45
2024/02/07 15:02:45;;;;;;;7.47;1.67;;;15.60;74.30;;;;;;4089146;28;20667;-45
2024/02/07 15:05:26;;;;;;;5.15;1.45;;;15.60;73.80;;;;;;4088810;28;20066;-45
2024/02/07 15:08:08;;;;;;;6.80;1.70;;;15.50;73.40;;;;;;4090158;28;20073;-46